createdAt,value
2022-11-06T00:01:22.202Z,100669.08
2022-11-06T00:03:56.212Z,100669.73
2022-11-06T00:06:46.065Z,100664.60
2022-11-06T00:09:20.682Z,100667.66
2022-11-06T00:11:54.717Z,100668.66
2022-11-06T00:14:28.469Z,100666.52
2022-11-06T00:17:00.650Z,100669.73
2022-11-06T00:19:32.862Z,100671.90
2022-11-06T00:22:05.542Z,100667.62
2022-11-06T00:24:38.083Z,100664.03
2022-11-06T00:27:10.489Z,100663.88
2022-11-06T00:29:43.220Z,100661.33
2022-11-06T00:32:16.297Z,100661.69
2022-11-06T00:34:49.680Z,100656.95
2022-11-06T00:37:22.271Z,100655.17
2022-11-06T00:39:54.566Z,100651.89
2022-11-06T00:42:26.837Z,100649.04
2022-11-06T00:44:59.143Z,100648.95
2022-11-06T00:47:31.511Z,100649.17
2022-11-06T00:50:04.668Z,100652.66
2022-11-06T00:52:36.932Z,100652.26
2022-11-06T00:55:11.116Z,100645.43
2022-11-06T00:57:43.335Z,100649.91
2022-11-06T01:00:18.339Z,100647.70
2022-11-06T01:02:50.643Z,100649.48
2022-11-06T01:05:23.337Z,100649.98
2022-11-06T01:07:55.852Z,100652.02
2022-11-06T01:10:28.253Z,100652.39
2022-11-06T01:13:00.791Z,100648.81
2022-11-06T01:15:32.986Z,100649.42
2022-11-06T01:18:05.370Z,100650.02
2022-11-06T01:20:40.163Z,100647.71
2022-11-06T01:23:12.363Z,100650.83
2022-11-06T01:25:44.659Z,100656.89
2022-11-06T01:28:21.041Z,100661.80
2022-11-06T01:30:53.401Z,100658.85
2022-11-06T01:33:25.992Z,100652.73
2022-11-06T01:35:58.318Z,100655.73
2022-11-06T01:38:30.729Z,100653.67
2022-11-06T01:41:03.441Z,100653.14
2022-11-06T01:43:51.102Z,100656.49
2022-11-06T01:46:24.805Z,100661.92
2022-11-06T01:49:00.581Z,100661.79
2022-11-06T01:51:41.847Z,100658.81
2022-11-06T01:54:15.760Z,100663.39
2022-11-06T01:56:51.394Z,100659.36
2022-11-06T01:59:26.655Z,100661.27
2022-11-06T02:01:59.485Z,100657.80
2022-11-06T02:04:37.522Z,100656.91
2022-11-06T02:07:11.063Z,100655.20
2022-11-06T02:09:43.809Z,100660.23
2022-11-06T02:12:26.030Z,100661.64
2022-11-06T02:15:14.249Z,100662.62
2022-11-06T02:17:58.555Z,100667.26
2022-11-06T02:20:37.843Z,100669.17
2022-11-06T02:23:36.530Z,100670.87
2022-11-06T02:26:24.423Z,100671.73
2022-11-06T02:29:02.619Z,100676.40
2022-11-06T02:31:40.581Z,100677.27
2022-11-06T02:34:16.753Z,100678.52
2022-11-06T02:36:54.980Z,100684.41
2022-11-06T02:39:30.910Z,100689.48
2022-11-06T02:42:05.376Z,100692.29
2022-11-06T02:44:40.876Z,100691.22
2022-11-06T02:47:15.563Z,100688.08
2022-11-06T02:49:51.970Z,100690.82
2022-11-06T02:52:29.386Z,100696.57
2022-11-06T02:55:05.814Z,100699.02
2022-11-06T02:57:44.230Z,100699.66
2022-11-06T03:00:18.469Z,100702.54
2022-11-06T03:02:56.417Z,100701.42
2022-11-06T03:05:33.415Z,100705.88
2022-11-06T03:08:13.216Z,100706.65
2022-11-06T03:10:53.970Z,100703.81
2022-11-06T03:13:37.554Z,100708.30
2022-11-06T03:16:22.009Z,100710.46
2022-11-06T03:19:01.403Z,100705.05
2022-11-06T03:21:39.723Z,100707.60
2022-11-06T03:24:17.673Z,100708.96
2022-11-06T03:26:54.791Z,100715.73
2022-11-06T03:29:36.605Z,100710.70
2022-11-06T03:32:16.618Z,100713.25
2022-11-06T03:34:56.474Z,100710.30
2022-11-06T03:37:34.804Z,100711.64
2022-11-06T03:40:13.723Z,100712.05
2022-11-06T03:42:47.227Z,100715.36
2022-11-06T03:45:24.410Z,100716.08
2022-11-06T03:48:01.063Z,100719.02
2022-11-06T03:50:38.362Z,100720.52
2022-11-06T03:53:16.012Z,100723.54
2022-11-06T03:55:53.337Z,100721.10
2022-11-06T03:58:29.280Z,100723.36
2022-11-06T04:01:05.581Z,100726.21
2022-11-06T04:03:42.771Z,100719.80
2022-11-06T04:06:21.022Z,100718.25
2022-11-06T04:09:14.237Z,100715.45
2022-11-06T04:12:06.758Z,100716.65
2022-11-06T04:14:43.562Z,100711.81
2022-11-06T04:17:17.677Z,100707.30
2022-11-06T04:19:54.887Z,100712.44
2022-11-06T04:22:39.711Z,100716.02
2022-11-06T04:25:54.041Z,100717.98
2022-11-06T04:28:37.747Z,100713.23
2022-11-06T04:31:15.605Z,100716.48
2022-11-06T04:33:56.286Z,100717.43
2022-11-06T04:36:39.533Z,100723.09
2022-11-06T04:39:20.559Z,100728.43
2022-11-06T04:42:02.580Z,100731.02
2022-11-06T04:44:39.635Z,100729.24
2022-11-06T04:47:14.194Z,100729.98
2022-11-06T04:49:49.514Z,100732.05
2022-11-06T04:52:26.504Z,100733.59
2022-11-06T04:55:00.634Z,100733.77
2022-11-06T04:57:33.018Z,100737.70
2022-11-06T05:00:06.627Z,100734.94
2022-11-06T05:02:39.206Z,100735.20
2022-11-06T05:05:12.029Z,100739.86
2022-11-06T05:07:44.311Z,100739.58
2022-11-06T05:10:16.718Z,100742.95
2022-11-06T05:12:50.282Z,100742.26
2022-11-06T05:15:22.856Z,100746.05
2022-11-06T05:17:55.164Z,100748.46
2022-11-06T05:20:28.060Z,100747.09
2022-11-06T05:23:00.963Z,100749.61
2022-11-06T05:25:35.752Z,100753.30
2022-11-06T05:28:09.349Z,100760.02
2022-11-06T05:30:42.010Z,100767.16
2022-11-06T05:33:14.446Z,100770.61
2022-11-06T05:35:47.026Z,100774.02
2022-11-06T05:38:19.608Z,100776.60
2022-11-06T05:40:51.998Z,100784.70
2022-11-06T05:43:24.230Z,100787.27
2022-11-06T05:45:56.553Z,100790.82
2022-11-06T05:48:29.982Z,100798.73
2022-11-06T05:51:05.624Z,100800.05
2022-11-06T05:53:39.690Z,100801.52
2022-11-06T05:56:12.384Z,100800.64
2022-11-06T05:58:44.682Z,100801.77
2022-11-06T06:01:16.970Z,100802.33
2022-11-06T06:03:50.304Z,100808.55
2022-11-06T06:06:23.457Z,100818.25
2022-11-06T06:08:55.673Z,100820.11
2022-11-06T06:11:27.889Z,100825.95
2022-11-06T06:14:00.968Z,100826.54
2022-11-06T06:16:33.827Z,100832.80
2022-11-06T06:19:06.792Z,100832.91
2022-11-06T06:21:39.272Z,100836.08
2022-11-06T06:24:11.854Z,100846.55
2022-11-06T06:26:44.259Z,100850.52
2022-11-06T06:29:17.552Z,100848.73
2022-11-06T06:31:50.867Z,100854.01
2022-11-06T06:34:23.310Z,100854.70
2022-11-06T06:36:56.273Z,100853.23
2022-11-06T06:39:28.704Z,100853.73
2022-11-06T06:42:00.929Z,100862.00
2022-11-06T06:44:33.137Z,100860.86
2022-11-06T06:47:05.499Z,100863.80
2022-11-06T06:49:37.779Z,100864.41
2022-11-06T06:52:10.003Z,100870.08
2022-11-06T06:54:42.376Z,100870.23
2022-11-06T06:57:14.636Z,100868.73
2022-11-06T06:59:47.290Z,100868.52
2022-11-06T07:02:19.977Z,100870.95
2022-11-06T07:04:52.366Z,100869.64
2022-11-06T07:07:24.723Z,100872.21
2022-11-06T07:09:57.112Z,100869.60
2022-11-06T07:12:30.546Z,100877.16
2022-11-06T07:15:02.825Z,100879.67
2022-11-06T07:17:35.093Z,100876.16
2022-11-06T07:20:09.544Z,100878.61
2022-11-06T07:22:41.751Z,100881.68
2022-11-06T07:25:14.565Z,100881.71
2022-11-06T07:27:46.910Z,100881.65
2022-11-06T07:30:19.526Z,100881.19
2022-11-06T07:32:52.278Z,100877.93
2022-11-06T07:35:24.975Z,100878.11
2022-11-06T07:37:57.647Z,100881.98
2022-11-06T07:40:29.864Z,100876.39
2022-11-06T07:43:07.908Z,100878.21
2022-11-06T07:45:41.057Z,100878.20
2022-11-06T07:48:13.976Z,100884.86
2022-11-06T07:50:46.430Z,100888.63
2022-11-06T07:53:18.855Z,100888.27
2022-11-06T07:55:55.541Z,100886.54
2022-11-06T07:58:28.001Z,100887.66
2022-11-06T08:01:01.669Z,100887.77
2022-11-06T08:03:34.647Z,100892.07
2022-11-06T08:06:08.090Z,100897.77
2022-11-06T08:08:40.451Z,100891.93
2022-11-06T08:11:14.017Z,100894.20
2022-11-06T08:13:46.706Z,100896.10
2022-11-06T08:16:19.111Z,100895.70
2022-11-06T08:18:51.303Z,100900.15
2022-11-06T08:21:23.829Z,100898.41
2022-11-06T08:23:56.186Z,100901.79
2022-11-06T08:26:28.809Z,100904.56
2022-11-06T08:29:01.052Z,100905.41
2022-11-06T08:31:33.808Z,100906.61
2022-11-06T08:34:06.912Z,100910.29
2022-11-06T08:36:45.546Z,100912.29
2022-11-06T08:39:21.258Z,100914.28
2022-11-06T08:41:53.669Z,100916.87
2022-11-06T08:44:27.203Z,100914.08
2022-11-06T08:46:59.546Z,100926.31
2022-11-06T08:49:31.730Z,100924.20
2022-11-06T08:52:04.898Z,100926.26
2022-11-06T08:54:37.519Z,100925.48
2022-11-06T08:57:10.150Z,100925.94
2022-11-06T08:59:42.506Z,100927.77
2022-11-06T09:02:16.864Z,100932.92
2022-11-06T09:04:49.161Z,100932.49
2022-11-06T09:07:21.462Z,100932.85
2022-11-06T09:09:53.957Z,100935.98
2022-11-06T09:12:26.130Z,100935.70
2022-11-06T09:14:58.563Z,100934.84
2022-11-06T09:17:30.798Z,100934.02
2022-11-06T09:20:03.592Z,100935.17
2022-11-06T09:22:36.410Z,100926.48
2022-11-06T09:25:11.423Z,100933.70
2022-11-06T09:27:48.064Z,100931.04
2022-11-06T09:30:23.011Z,100932.68
2022-11-06T09:32:57.351Z,100928.34
2022-11-06T09:35:32.609Z,100933.08
2022-11-06T09:38:06.474Z,100929.34
2022-11-06T09:40:42.493Z,100934.10
2022-11-06T09:44:04.148Z,100930.13
2022-11-06T09:46:38.956Z,100928.98
2022-11-06T09:49:19.846Z,100926.77
2022-11-06T09:51:58.684Z,100927.82
2022-11-06T09:54:36.067Z,100928.30
2022-11-06T09:57:17.566Z,100924.31
2022-11-06T09:59:51.943Z,100924.23
2022-11-06T10:02:30.986Z,100924.72
2022-11-06T10:05:13.286Z,100925.77
2022-11-06T10:07:47.661Z,100923.04
2022-11-06T10:10:24.964Z,100927.48
2022-11-06T10:13:08.440Z,100929.16
2022-11-06T10:15:46.726Z,100923.95
2022-11-06T10:18:27.190Z,100921.27
2022-11-06T10:21:10.819Z,100919.78
2022-11-06T10:23:49.770Z,100918.09
2022-11-06T10:26:31.214Z,100914.38
2022-11-06T10:29:40.277Z,100913.38
2022-11-06T10:32:46.750Z,100911.69
2022-11-06T10:35:24.959Z,100910.46
2022-11-06T10:38:04.920Z,100909.73
2022-11-06T10:40:37.852Z,100912.52
2022-11-06T10:43:20.084Z,100908.48
2022-11-06T10:45:58.404Z,100907.73
2022-11-06T10:48:37.102Z,100901.48
2022-11-06T10:51:37.905Z,100896.86
2022-11-06T10:54:23.042Z,100898.35
2022-11-06T10:57:06.937Z,100897.40
2022-11-06T10:59:39.242Z,100892.22
2022-11-06T11:02:33.489Z,100894.39
2022-11-06T11:05:15.679Z,100890.55
2022-11-06T11:07:50.053Z,100888.59
2022-11-06T11:10:32.344Z,100887.45
2022-11-06T11:13:09.012Z,100890.32
2022-11-06T11:15:48.174Z,100874.89
2022-11-06T11:18:24.617Z,100874.79
2022-11-06T11:21:09.297Z,100874.07
2022-11-06T11:23:41.918Z,100873.41
2022-11-06T11:26:24.222Z,100866.62
2022-11-06T11:28:59.515Z,100867.47
2022-11-06T11:31:34.777Z,100864.79
2022-11-06T11:34:15.641Z,100864.77
2022-11-06T11:37:03.047Z,100866.11
2022-11-06T11:39:37.912Z,100860.09
2022-11-06T11:42:35.567Z,100860.36
2022-11-06T11:45:20.770Z,100859.33
2022-11-06T11:47:54.156Z,100858.95
2022-11-06T11:50:33.048Z,100854.53
2022-11-06T11:53:13.122Z,100855.27
2022-11-06T11:55:49.872Z,100854.00
2022-11-06T11:58:28.097Z,100853.55
2022-11-06T12:01:03.327Z,100855.38
2022-11-06T12:03:42.770Z,100856.60
2022-11-06T12:06:16.891Z,100851.91
2022-11-06T12:08:52.939Z,100855.09
2022-11-06T12:11:27.448Z,100853.60
2022-11-06T12:14:37.853Z,100860.14
2022-11-06T12:17:20.951Z,100860.91
2022-11-06T12:19:58.783Z,100858.63
2022-11-06T12:22:35.009Z,100859.08
2022-11-06T12:25:16.431Z,100858.70
2022-11-06T12:27:53.886Z,100864.13
2022-11-06T12:30:26.491Z,100856.15
2022-11-06T12:33:04.777Z,100863.19
2022-11-06T12:35:42.775Z,100860.04
2022-11-06T12:38:27.165Z,100861.70
2022-11-06T12:41:03.267Z,100865.23
2022-11-06T12:43:42.987Z,100864.71
2022-11-06T12:46:39.277Z,100863.48
2022-11-06T12:49:30.912Z,100864.89
2022-11-06T12:52:19.694Z,100864.53
2022-11-06T12:55:12.251Z,100867.36
2022-11-06T12:57:57.859Z,100864.61
2022-11-06T13:00:36.653Z,100876.06
2022-11-06T13:03:43.139Z,100876.05
2022-11-06T13:06:22.801Z,100873.02
2022-11-06T13:09:02.174Z,100871.06
2022-11-06T13:11:45.197Z,100876.52
2022-11-06T13:14:28.007Z,100879.96
2022-11-06T13:17:04.083Z,100880.71
2022-11-06T13:19:44.506Z,100881.15
2022-11-06T13:22:29.411Z,100881.86
2022-11-06T13:25:10.182Z,100880.48
2022-11-06T13:27:47.706Z,100881.05
2022-11-06T13:30:22.126Z,100879.11
2022-11-06T13:33:06.616Z,100886.36
2022-11-06T13:35:41.664Z,100883.81
2022-11-06T13:38:18.607Z,100891.09
2022-11-06T13:40:57.092Z,100898.17
2022-11-06T13:43:37.189Z,100893.30
2022-11-06T13:46:16.478Z,100892.93
2022-11-06T13:48:56.984Z,100894.66
2022-11-06T13:51:42.042Z,100898.05
2022-11-06T13:54:28.355Z,100900.73
2022-11-06T13:57:29.508Z,100900.36
2022-11-06T14:00:17.253Z,100903.95
2022-11-06T14:03:10.825Z,100903.39
2022-11-06T14:05:57.321Z,100907.15
2022-11-06T14:08:32.514Z,100910.56
2022-11-06T14:11:08.326Z,100913.33
2022-11-06T14:13:41.950Z,100917.30
2022-11-06T14:16:34.241Z,100917.84
2022-11-06T14:19:12.753Z,100917.95
2022-11-06T14:21:53.375Z,100922.63
2022-11-06T14:24:42.863Z,100917.05
2022-11-06T14:27:36.199Z,100925.56
2022-11-06T14:30:19.641Z,100921.89
2022-11-06T14:32:56.213Z,100917.46
2022-11-06T14:35:52.365Z,100919.27
2022-11-06T14:38:38.716Z,100921.85
2022-11-06T14:41:50.211Z,100918.59
2022-11-06T14:44:31.500Z,100922.54
2022-11-06T14:47:07.122Z,100930.35
2022-11-06T14:49:40.861Z,100930.15
2022-11-06T14:52:15.806Z,100931.27
2022-11-06T14:55:03.365Z,100926.52
2022-11-06T14:57:56.983Z,100929.20
2022-11-06T15:00:51.177Z,100931.71
2022-11-06T15:03:32.856Z,100929.49
2022-11-06T15:06:35.949Z,100931.11
2022-11-06T15:09:12.490Z,100932.30
2022-11-06T15:11:59.751Z,100931.74
2022-11-06T15:15:00.613Z,100933.02
2022-11-06T15:17:36.843Z,100932.21
2022-11-06T15:20:22.544Z,100937.88
2022-11-06T15:23:13.132Z,100943.42
2022-11-06T15:25:52.745Z,100947.84
2022-11-06T15:28:28.809Z,100953.52
2022-11-06T15:31:05.816Z,100952.84
2022-11-06T15:33:43.300Z,100959.96
2022-11-06T15:36:17.457Z,100959.04
2022-11-06T15:38:50.056Z,100962.50
2022-11-06T15:41:25.615Z,100963.72
2022-11-06T15:43:58.873Z,100963.76
2022-11-06T15:46:31.574Z,100964.27
2022-11-06T15:49:17.822Z,100968.27
2022-11-06T15:51:58.738Z,100974.47
2022-11-06T15:54:43.896Z,100979.01
2022-11-06T15:57:20.530Z,100981.92
2022-11-06T16:00:09.402Z,100984.79
2022-11-06T16:02:53.007Z,100990.95
2022-11-06T16:05:28.465Z,100993.67
2022-11-06T16:08:02.447Z,100997.19
2022-11-06T16:10:37.079Z,101005.89
2022-11-06T16:13:12.256Z,101007.02
2022-11-06T16:15:56.913Z,101006.53
2022-11-06T16:18:34.194Z,101012.02
2022-11-06T16:21:16.623Z,101015.77
2022-11-06T16:23:53.285Z,101018.60
2022-11-06T16:26:28.521Z,101023.71
2022-11-06T16:29:01.637Z,101022.42
2022-11-06T16:31:34.239Z,101026.23
2022-11-06T16:34:09.199Z,101030.05
2022-11-06T16:37:01.748Z,101033.56
2022-11-06T16:39:49.125Z,101033.18
2022-11-06T16:42:30.975Z,101035.65
2022-11-06T16:45:17.902Z,101038.53
2022-11-06T16:48:19.682Z,101044.60
2022-11-06T16:50:54.844Z,101043.35
2022-11-06T16:53:31.638Z,101051.63
2022-11-06T16:56:06.694Z,101052.62
2022-11-06T16:58:48.651Z,101054.20
2022-11-06T17:01:21.524Z,101058.23
2022-11-06T17:03:59.695Z,101060.35
2022-11-06T17:06:34.573Z,101061.37
2022-11-06T17:09:27.403Z,101063.59
2022-11-06T17:12:01.667Z,101068.02
2022-11-06T17:14:34.897Z,101072.94
2022-11-06T17:17:07.160Z,101072.36
2022-11-06T17:19:39.625Z,101074.05
2022-11-06T17:22:13.625Z,101079.02
2022-11-06T17:24:45.986Z,101082.64
2022-11-06T17:27:18.356Z,101077.98
2022-11-06T17:29:52.907Z,101080.23
2022-11-06T17:32:25.107Z,101089.16
2022-11-06T17:34:57.376Z,101094.98
2022-11-06T17:37:30.086Z,101091.23
2022-11-06T17:40:02.444Z,101094.92
2022-11-06T17:42:34.862Z,101095.39
2022-11-06T17:45:08.081Z,101091.95
2022-11-06T17:47:40.322Z,101098.70
2022-11-06T17:50:13.561Z,101097.76
2022-11-06T17:52:45.714Z,101101.64
2022-11-06T17:55:18.262Z,101106.12
2022-11-06T17:57:50.552Z,101113.73
2022-11-06T18:00:23.940Z,101116.38
2022-11-06T18:03:01.391Z,101118.11
2022-11-06T18:05:36.053Z,101117.40
2022-11-06T18:08:12.641Z,101124.05
2022-11-06T18:10:45.598Z,101125.38
2022-11-06T18:13:18.218Z,101124.77
2022-11-06T18:15:50.518Z,101130.85
2022-11-06T18:18:23.269Z,101130.11
2022-11-06T18:20:56.010Z,101130.13
2022-11-06T18:23:28.577Z,101132.54
2022-11-06T18:26:01.176Z,101128.83
2022-11-06T18:28:33.600Z,101133.80
2022-11-06T18:31:05.817Z,101131.16
2022-11-06T18:33:38.761Z,101135.23
2022-11-06T18:36:13.483Z,101140.91
2022-11-06T18:38:46.161Z,101135.15
2022-11-06T18:41:20.180Z,101142.59
2022-11-06T18:43:56.473Z,101143.32
2022-11-06T18:46:29.908Z,101146.64
2022-11-06T18:49:02.162Z,101147.52
2022-11-06T18:51:36.424Z,101147.18
2022-11-06T18:54:11.082Z,101145.77
2022-11-06T18:56:43.781Z,101151.77
2022-11-06T18:59:21.188Z,101153.69
2022-11-06T19:01:54.305Z,101154.67
2022-11-06T19:04:28.104Z,101152.37
2022-11-06T19:07:00.896Z,101155.17
2022-11-06T19:09:33.126Z,101157.66
2022-11-06T19:12:06.241Z,101156.09
2022-11-06T19:14:39.006Z,101158.40
2022-11-06T19:17:11.322Z,101163.11
2022-11-06T19:19:43.927Z,101167.30
2022-11-06T19:22:16.638Z,101161.30
2022-11-06T19:24:49.034Z,101162.48
2022-11-06T19:27:21.770Z,101163.00
2022-11-06T19:29:54.010Z,101163.71
2022-11-06T19:32:26.187Z,101167.94
2022-11-06T19:34:59.518Z,101172.86
2022-11-06T19:37:32.498Z,101176.79
2022-11-06T19:40:06.306Z,101179.30
2022-11-06T19:42:38.909Z,101177.73
2022-11-06T19:45:12.920Z,101187.11
2022-11-06T19:47:45.175Z,101187.30
2022-11-06T19:50:33.143Z,101188.17
2022-11-06T19:53:10.274Z,101191.16
2022-11-06T19:55:43.726Z,101196.94
2022-11-06T19:58:16.433Z,101196.20
2022-11-06T20:00:49.768Z,101196.48
2022-11-06T20:03:22.047Z,101201.41
2022-11-06T20:05:55.134Z,101203.27
2022-11-06T20:08:28.292Z,101209.59
2022-11-06T20:11:07.395Z,101211.21
2022-11-06T20:13:40.297Z,101209.39
2022-11-06T20:16:15.047Z,101210.86
2022-11-06T20:18:51.286Z,101210.63
2022-11-06T20:21:26.376Z,101212.42
2022-11-06T20:23:59.280Z,101213.57
2022-11-06T20:26:32.132Z,101211.67
2022-11-06T20:29:04.741Z,101215.61
2022-11-06T20:31:37.175Z,101219.02
2022-11-06T20:34:09.895Z,101224.04
2022-11-06T20:36:42.386Z,101221.27
2022-11-06T20:39:16.849Z,101225.42
2022-11-06T20:41:49.280Z,101224.13
2022-11-06T20:44:22.480Z,101223.40
2022-11-06T20:46:54.718Z,101227.38
2022-11-06T20:49:27.563Z,101224.57
2022-11-06T20:52:13.748Z,101226.79
2022-11-06T20:54:47.645Z,101224.77
2022-11-06T20:57:20.515Z,101224.14
2022-11-06T20:59:52.861Z,101227.33
2022-11-06T21:02:25.364Z,101228.21
2022-11-06T21:04:57.870Z,101230.66
2022-11-06T21:07:30.100Z,101233.34
2022-11-06T21:10:02.740Z,101234.38
2022-11-06T21:12:35.054Z,101234.83
2022-11-06T21:15:08.781Z,101235.77
2022-11-06T21:17:43.891Z,101235.27
2022-11-06T21:20:22.416Z,101233.32
2022-11-06T21:22:56.930Z,101236.60
2022-11-06T21:25:29.957Z,101237.52
2022-11-06T21:28:02.342Z,101237.88
2022-11-06T21:30:34.985Z,101239.28
2022-11-06T21:33:07.328Z,101240.19
2022-11-06T21:35:40.025Z,101242.85
2022-11-06T21:38:12.612Z,101241.95
2022-11-06T21:40:44.891Z,101245.76
2022-11-06T21:43:17.169Z,101244.70
2022-11-06T21:45:49.778Z,101248.52
2022-11-06T21:48:40.674Z,101244.40
2022-11-06T21:51:16.793Z,101247.25
2022-11-06T21:54:06.829Z,101252.02
2022-11-06T21:56:39.979Z,101252.27
2022-11-06T21:59:14.686Z,101254.28
2022-11-06T22:01:47.382Z,101257.64
2022-11-06T22:04:20.277Z,101258.70
2022-11-06T22:06:53.974Z,101256.55
2022-11-06T22:09:26.348Z,101257.56
2022-11-06T22:12:00.442Z,101260.36
2022-11-06T22:14:33.827Z,101256.56
2022-11-06T22:17:06.499Z,101259.08
2022-11-06T22:19:38.767Z,101256.95
2022-11-06T22:22:11.577Z,101258.11
2022-11-06T22:24:44.647Z,101260.71
2022-11-06T22:27:17.169Z,101266.86
2022-11-06T22:29:49.407Z,101266.08
2022-11-06T22:32:21.654Z,101263.21
2022-11-06T22:34:54.339Z,101263.40
2022-11-06T22:37:27.006Z,101266.84
2022-11-06T22:39:59.450Z,101267.45
2022-11-06T22:42:31.806Z,101269.32
2022-11-06T22:45:04.026Z,101266.36
2022-11-06T22:47:36.714Z,101269.38
2022-11-06T22:50:10.370Z,101266.63
2022-11-06T22:52:42.967Z,101261.64
2022-11-06T22:55:15.535Z,101261.85
2022-11-06T22:57:47.745Z,101260.98
2022-11-06T23:00:25.029Z,101267.63
2022-11-06T23:02:57.875Z,101266.01
2022-11-06T23:05:30.179Z,101267.67
2022-11-06T23:08:02.395Z,101275.82
2022-11-06T23:10:36.531Z,101274.90
2022-11-06T23:13:10.340Z,101274.05
2022-11-06T23:15:42.810Z,101273.91
2022-11-06T23:18:15.329Z,101272.82
2022-11-06T23:20:47.695Z,101275.04
2022-11-06T23:23:20.003Z,101274.02
2022-11-06T23:25:52.613Z,101272.58
2022-11-06T23:28:25.266Z,101276.88
2022-11-06T23:30:57.635Z,101279.48
2022-11-06T23:33:32.037Z,101275.05
2022-11-06T23:36:08.180Z,101276.30
2022-11-06T23:38:41.936Z,101278.39
2022-11-06T23:41:33.656Z,101279.68
2022-11-06T23:44:27.177Z,101287.57
2022-11-06T23:47:00.060Z,101289.36
2022-11-06T23:49:32.373Z,101295.06
2022-11-06T23:52:04.834Z,101300.67
2022-11-06T23:54:37.490Z,101303.06
2022-11-06T23:57:10.510Z,101298.95
2022-11-06T23:59:43.309Z,101297.73
